sensor_id;sensor_type;location;lat;lon;timestamp;P1;durP1;ratioP1;P2;durP2;ratioP2
5696;SDS011;2873;50.966;7.210;2023-02-01T00:01:42;23.10;;;9.00;;
5696;SDS011;2873;50.966;7.210;2023-02-01T00:04:08;23.17;;;9.38;;
5696;SDS011;2873;50.966;7.210;2023-02-01T00:06:33;17.40;;;7.83;;
5696;SDS011;2873;50.966;7.210;2023-02-01T00:08:59;23.52;;;8.93;;
5696;SDS011;2873;50.966;7.210;2023-02-01T00:11:24;18.60;;;8.10;;
5696;SDS011;2873;50.966;7.210;2023-02-01T00:13:50;24.02;;;8.75;;
5696;SDS011;2873;50.966;7.210;2023-02-01T00:16:17;19.15;;;8.27;;
5696;SDS011;2873;50.966;7.210;2023-02-01T00:18:48;20.95;;;8.10;;
5696;SDS011;2873;50.966;7.210;2023-02-01T00:21:16;18.50;;;7.38;;
5696;SDS011;2873;50.966;7.210;2023-02-01T00:23:43;23.73;;;7.55;;
5696;SDS011;2873;50.966;7.210;2023-02-01T00:26:16;18.25;;;7.85;;
5696;SDS011;2873;50.966;7.210;2023-02-01T00:28:44;16.97;;;6.90;;
5696;SDS011;2873;50.966;7.210;2023-02-01T00:31:10;20.05;;;7.30;;
5696;SDS011;2873;50.966;7.210;2023-02-01T00:33:36;16.73;;;7.40;;
5696;SDS011;2873;50.966;7.210;2023-02-01T00:36:05;22.43;;;7.93;;
5696;SDS011;2873;50.966;7.210;2023-02-01T00:38:33;22.00;;;7.30;;
5696;SDS011;2873;50.966;7.210;2023-02-01T00:41:05;19.17;;;8.20;;
5696;SDS011;2873;50.966;7.210;2023-02-01T00:43:32;22.43;;;7.80;;
5696;SDS011;2873;50.966;7.210;2023-02-01T00:45:59;18.50;;;7.68;;
5696;SDS011;2873;50.966;7.210;2023-02-01T00:48:25;24.30;;;8.30;;
5696;SDS011;2873;50.966;7.210;2023-02-01T00:50:51;22.73;;;7.60;;
5696;SDS011;2873;50.966;7.210;2023-02-01T00:53:16;20.92;;;7.90;;
5696;SDS011;2873;50.966;7.210;2023-02-01T00:55:46;24.17;;;8.20;;
5696;SDS011;2873;50.966;7.210;2023-02-01T00:58:12;18.70;;;7.50;;
5696;SDS011;2873;50.966;7.210;2023-02-01T01:00:38;23.83;;;8.30;;
5696;SDS011;2873;50.966;7.210;2023-02-01T01:03:03;20.03;;;7.60;;
5696;SDS011;2873;50.966;7.210;2023-02-01T01:05:43;20.98;;;7.50;;
5696;SDS011;2873;50.966;7.210;2023-02-01T01:08:09;24.60;;;7.90;;
5696;SDS011;2873;50.966;7.210;2023-02-01T01:10:35;20.50;;;6.70;;
5696;SDS011;2873;50.966;7.210;2023-02-01T01:13:00;17.67;;;6.40;;
5696;SDS011;2873;50.966;7.210;2023-02-01T01:15:26;20.38;;;7.10;;
5696;SDS011;2873;50.966;7.210;2023-02-01T01:17:51;19.93;;;7.00;;
5696;SDS011;2873;50.966;7.210;2023-02-01T01:20:17;18.33;;;6.28;;
5696;SDS011;2873;50.966;7.210;2023-02-01T01:22:46;19.48;;;6.25;;
5696;SDS011;2873;50.966;7.210;2023-02-01T01:25:12;20.65;;;5.70;;
5696;SDS011;2873;50.966;7.210;2023-02-01T01:27:38;16.67;;;5.50;;
5696;SDS011;2873;50.966;7.210;2023-02-01T01:30:03;13.50;;;4.70;;
5696;SDS011;2873;50.966;7.210;2023-02-01T01:32:29;17.38;;;5.10;;
5696;SDS011;2873;50.966;7.210;2023-02-01T01:34:55;21.60;;;5.37;;
5696;SDS011;2873;50.966;7.210;2023-02-01T01:37:20;15.35;;;4.75;;
5696;SDS011;2873;50.966;7.210;2023-02-01T01:39:46;15.67;;;4.87;;
5696;SDS011;2873;50.966;7.210;2023-02-01T01:42:11;14.25;;;4.10;;
5696;SDS011;2873;50.966;7.210;2023-02-01T01:47:23;16.17;;;4.40;;
5696;SDS011;2873;50.966;7.210;2023-02-01T01:49:49;15.50;;;3.90;;
5696;SDS011;2873;50.966;7.210;2023-02-01T01:52:15;14.57;;;3.80;;
5696;SDS011;2873;50.966;7.210;2023-02-01T01:54:42;19.65;;;4.60;;
5696;SDS011;2873;50.966;7.210;2023-02-01T01:57:14;15.45;;;4.32;;
5696;SDS011;2873;50.966;7.210;2023-02-01T01:59:46;15.50;;;3.80;;
5696;SDS011;2873;50.966;7.210;2023-02-01T02:02:15;15.32;;;3.97;;
5696;SDS011;2873;50.966;7.210;2023-02-01T02:04:41;11.05;;;3.20;;
5696;SDS011;2873;50.966;7.210;2023-02-01T02:07:08;17.87;;;3.50;;
5696;SDS011;2873;50.966;7.210;2023-02-01T02:09:45;12.10;;;3.38;;
5696;SDS011;2873;50.966;7.210;2023-02-01T02:12:11;10.35;;;3.40;;
5696;SDS011;2873;50.966;7.210;2023-02-01T02:14:36;13.48;;;3.35;;
5696;SDS011;2873;50.966;7.210;2023-02-01T02:31:23;17.52;;;3.58;;
5696;SDS011;2873;50.966;7.210;2023-02-01T02:37:01;12.60;;;3.50;;
5696;SDS011;2873;50.966;7.210;2023-02-01T02:42:13;16.42;;;3.80;;
5696;SDS011;2873;50.966;7.210;2023-02-01T02:45:37;11.38;;;3.60;;
5696;SDS011;2873;50.966;7.210;2023-02-01T02:53:58;11.13;;;3.10;;
5696;SDS011;2873;50.966;7.210;2023-02-01T02:56:48;13.27;;;3.25;;
5696;SDS011;2873;50.966;7.210;2023-02-01T02:59:34;14.68;;;3.40;;
5696;SDS011;2873;50.966;7.210;2023-02-01T03:02:20;15.60;;;3.90;;
5696;SDS011;2873;50.966;7.210;2023-02-01T03:05:05;13.70;;;3.58;;
5696;SDS011;2873;50.966;7.210;2023-02-01T03:08:14;17.50;;;3.95;;
5696;SDS011;2873;50.966;7.210;2023-02-01T03:10:24;12.90;;;3.40;;
5696;SDS011;2873;50.966;7.210;2023-02-01T03:13:01;15.18;;;3.60;;
5696;SDS011;2873;50.966;7.210;2023-02-01T03:15:38;11.25;;;3.20;;
5696;SDS011;2873;50.966;7.210;2023-02-01T03:18:13;10.13;;;3.38;;
5696;SDS011;2873;50.966;7.210;2023-02-01T03:21:07;11.50;;;3.90;;
5696;SDS011;2873;50.966;7.210;2023-02-01T03:23:38;17.10;;;4.18;;
5696;SDS011;2873;50.966;7.210;2023-02-01T03:26:04;13.15;;;4.07;;
5696;SDS011;2873;50.966;7.210;2023-02-01T03:28:34;21.63;;;6.40;;
5696;SDS011;2873;50.966;7.210;2023-02-01T03:31:01;17.05;;;5.50;;
5696;SDS011;2873;50.966;7.210;2023-02-01T03:33:27;13.20;;;4.30;;
5696;SDS011;2873;50.966;7.210;2023-02-01T03:43:59;16.95;;;4.97;;
5696;SDS011;2873;50.966;7.210;2023-02-01T03:46:38;11.25;;;4.43;;
5696;SDS011;2873;50.966;7.210;2023-02-01T03:49:11;17.40;;;4.75;;
5696;SDS011;2873;50.966;7.210;2023-02-01T03:51:43;13.98;;;5.82;;
5696;SDS011;2873;50.966;7.210;2023-02-01T03:54:09;17.13;;;5.25;;
5696;SDS011;2873;50.966;7.210;2023-02-01T03:56:39;15.30;;;4.60;;
5696;SDS011;2873;50.966;7.210;2023-02-01T03:59:09;15.70;;;5.30;;
5696;SDS011;2873;50.966;7.210;2023-02-01T04:01:35;20.38;;;5.18;;
5696;SDS011;2873;50.966;7.210;2023-02-01T04:04:03;25.05;;;6.10;;
5696;SDS011;2873;50.966;7.210;2023-02-01T04:06:29;21.45;;;4.72;;
5696;SDS011;2873;50.966;7.210;2023-02-01T04:08:54;16.00;;;5.60;;
5696;SDS011;2873;50.966;7.210;2023-02-01T04:11:20;18.45;;;5.50;;
5696;SDS011;2873;50.966;7.210;2023-02-01T04:13:45;19.73;;;6.03;;
5696;SDS011;2873;50.966;7.210;2023-02-01T04:16:11;16.25;;;5.70;;
5696;SDS011;2873;50.966;7.210;2023-02-01T04:18:36;24.17;;;6.10;;
5696;SDS011;2873;50.966;7.210;2023-02-01T04:21:02;16.33;;;5.35;;
5696;SDS011;2873;50.966;7.210;2023-02-01T04:23:28;22.73;;;5.32;;
5696;SDS011;2873;50.966;7.210;2023-02-01T04:25:58;14.75;;;4.78;;
5696;SDS011;2873;50.966;7.210;2023-02-01T04:28:25;19.23;;;5.53;;
5696;SDS011;2873;50.966;7.210;2023-02-01T04:30:50;20.60;;;6.47;;
5696;SDS011;2873;50.966;7.210;2023-02-01T04:33:16;20.40;;;6.80;;
5696;SDS011;2873;50.966;7.210;2023-02-01T04:35:41;21.53;;;6.87;;
5696;SDS011;2873;50.966;7.210;2023-02-01T04:38:07;20.45;;;6.90;;
5696;SDS011;2873;50.966;7.210;2023-02-01T04:40:33;15.80;;;5.70;;
5696;SDS011;2873;50.966;7.210;2023-02-01T04:43:00;23.38;;;5.93;;
5696;SDS011;2873;50.966;7.210;2023-02-01T04:45:25;13.63;;;4.32;;
5696;SDS011;2873;50.966;7.210;2023-02-01T04:47:51;17.00;;;4.60;;
5696;SDS011;2873;50.966;7.210;2023-02-01T04:50:16;17.98;;;4.80;;
5696;SDS011;2873;50.966;7.210;2023-02-01T04:52:42;17.57;;;4.70;;
5696;SDS011;2873;50.966;7.210;2023-02-01T04:55:10;15.80;;;4.63;;
5696;SDS011;2873;50.966;7.210;2023-02-01T04:57:35;27.65;;;6.32;;
5696;SDS011;2873;50.966;7.210;2023-02-01T05:00:03;16.83;;;4.97;;
5696;SDS011;2873;50.966;7.210;2023-02-01T05:02:30;24.50;;;5.80;;
5696;SDS011;2873;50.966;7.210;2023-02-01T05:04:57;16.20;;;4.32;;
5696;SDS011;2873;50.966;7.210;2023-02-01T05:07:22;17.60;;;5.60;;
5696;SDS011;2873;50.966;7.210;2023-02-01T05:09:48;20.30;;;5.00;;
5696;SDS011;2873;50.966;7.210;2023-02-01T05:12:13;12.02;;;4.07;;
5696;SDS011;2873;50.966;7.210;2023-02-01T05:14:58;22.30;;;5.90;;
5696;SDS011;2873;50.966;7.210;2023-02-01T05:17:23;17.50;;;4.40;;
5696;SDS011;2873;50.966;7.210;2023-02-01T05:19:49;22.73;;;6.93;;
5696;SDS011;2873;50.966;7.210;2023-02-01T05:22:14;14.63;;;4.73;;
5696;SDS011;2873;50.966;7.210;2023-02-01T05:24:40;21.70;;;6.57;;
5696;SDS011;2873;50.966;7.210;2023-02-01T05:27:05;18.70;;;4.80;;
5696;SDS011;2873;50.966;7.210;2023-02-01T05:29:31;21.15;;;4.80;;
5696;SDS011;2873;50.966;7.210;2023-02-01T05:31:57;19.42;;;4.03;;
5696;SDS011;2873;50.966;7.210;2023-02-01T05:34:22;18.03;;;5.37;;
5696;SDS011;2873;50.966;7.210;2023-02-01T05:36:48;17.58;;;4.47;;
5696;SDS011;2873;50.966;7.210;2023-02-01T05:39:13;19.80;;;5.20;;
5696;SDS011;2873;50.966;7.210;2023-02-01T05:41:39;23.20;;;4.97;;
5696;SDS011;2873;50.966;7.210;2023-02-01T05:44:04;18.80;;;4.10;;
5696;SDS011;2873;50.966;7.210;2023-02-01T05:46:32;13.07;;;4.10;;
5696;SDS011;2873;50.966;7.210;2023-02-01T05:48:58;21.58;;;3.95;;
5696;SDS011;2873;50.966;7.210;2023-02-01T05:51:24;21.70;;;4.57;;
5696;SDS011;2873;50.966;7.210;2023-02-01T05:53:49;19.70;;;5.10;;
5696;SDS011;2873;50.966;7.210;2023-02-01T05:56:15;16.67;;;4.27;;
5696;SDS011;2873;50.966;7.210;2023-02-01T05:58:40;13.52;;;3.55;;
5696;SDS011;2873;50.966;7.210;2023-02-01T06:01:06;17.00;;;3.70;;
5696;SDS011;2873;50.966;7.210;2023-02-01T06:03:31;13.38;;;3.97;;
5696;SDS011;2873;50.966;7.210;2023-02-01T06:05:57;23.13;;;4.60;;
5696;SDS011;2873;50.966;7.210;2023-02-01T06:08:23;15.35;;;3.58;;
5696;SDS011;2873;50.966;7.210;2023-02-01T06:10:56;16.52;;;3.92;;
5696;SDS011;2873;50.966;7.210;2023-02-01T06:13:31;11.70;;;3.20;;
5696;SDS011;2873;50.966;7.210;2023-02-01T06:15:57;14.48;;;3.42;;
5696;SDS011;2873;50.966;7.210;2023-02-01T06:18:24;14.23;;;3.10;;
5696;SDS011;2873;50.966;7.210;2023-02-01T06:20:53;14.68;;;3.47;;
5696;SDS011;2873;50.966;7.210;2023-02-01T06:23:20;13.77;;;3.20;;
5696;SDS011;2873;50.966;7.210;2023-02-01T06:25:48;15.75;;;3.10;;
5696;SDS011;2873;50.966;7.210;2023-02-01T06:28:18;15.00;;;3.72;;
5696;SDS011;2873;50.966;7.210;2023-02-01T06:30:43;19.10;;;3.17;;
5696;SDS011;2873;50.966;7.210;2023-02-01T06:33:11;15.70;;;3.30;;
5696;SDS011;2873;50.966;7.210;2023-02-01T06:35:39;15.77;;;3.55;;
5696;SDS011;2873;50.966;7.210;2023-02-01T06:38:07;15.95;;;3.28;;
5696;SDS011;2873;50.966;7.210;2023-02-01T06:40:33;13.70;;;3.33;;
5696;SDS011;2873;50.966;7.210;2023-02-01T06:42:58;19.40;;;3.90;;
5696;SDS011;2873;50.966;7.210;2023-02-01T06:45:24;12.65;;;3.55;;
5696;SDS011;2873;50.966;7.210;2023-02-01T06:47:49;15.47;;;3.70;;
5696;SDS011;2873;50.966;7.210;2023-02-01T06:50:15;17.17;;;3.90;;
5696;SDS011;2873;50.966;7.210;2023-02-01T06:52:41;11.75;;;3.00;;
5696;SDS011;2873;50.966;7.210;2023-02-01T06:55:06;15.90;;;3.60;;
5696;SDS011;2873;50.966;7.210;2023-02-01T06:57:32;16.98;;;3.78;;
5696;SDS011;2873;50.966;7.210;2023-02-01T06:59:59;13.93;;;3.75;;
5696;SDS011;2873;50.966;7.210;2023-02-01T07:02:24;24.90;;;4.07;;
5696;SDS011;2873;50.966;7.210;2023-02-01T07:04:50;18.67;;;4.20;;
5696;SDS011;2873;50.966;7.210;2023-02-01T07:07:16;14.07;;;3.00;;
5696;SDS011;2873;50.966;7.210;2023-02-01T07:09:41;13.50;;;3.70;;
5696;SDS011;2873;50.966;7.210;2023-02-01T07:12:07;21.73;;;4.60;;
5696;SDS011;2873;50.966;7.210;2023-02-01T07:14:34;19.67;;;4.30;;
5696;SDS011;2873;50.966;7.210;2023-02-01T07:17:00;15.60;;;4.13;;
5696;SDS011;2873;50.966;7.210;2023-02-01T07:19:25;20.27;;;3.70;;
5696;SDS011;2873;50.966;7.210;2023-02-01T07:21:51;15.73;;;3.72;;
5696;SDS011;2873;50.966;7.210;2023-02-01T07:24:17;17.03;;;4.00;;
5696;SDS011;2873;50.966;7.210;2023-02-01T07:26:42;16.85;;;4.07;;
5696;SDS011;2873;50.966;7.210;2023-02-01T07:29:08;15.03;;;4.00;;
5696;SDS011;2873;50.966;7.210;2023-02-01T07:31:34;13.60;;;4.00;;
5696;SDS011;2873;50.966;7.210;2023-02-01T07:34:03;16.70;;;4.10;;
5696;SDS011;2873;50.966;7.210;2023-02-01T07:36:28;12.80;;;3.50;;
5696;SDS011;2873;50.966;7.210;2023-02-01T07:38:54;15.52;;;3.40;;
5696;SDS011;2873;50.966;7.210;2023-02-01T07:41:19;16.70;;;3.80;;
5696;SDS011;2873;50.966;7.210;2023-02-01T07:43:45;17.95;;;3.80;;
5696;SDS011;2873;50.966;7.210;2023-02-01T07:46:11;21.95;;;3.20;;
5696;SDS011;2873;50.966;7.210;2023-02-01T07:48:37;22.88;;;4.50;;
5696;SDS011;2873;50.966;7.210;2023-02-01T07:51:08;17.73;;;4.10;;
5696;SDS011;2873;50.966;7.210;2023-02-01T07:53:35;11.68;;;3.70;;
5696;SDS011;2873;50.966;7.210;2023-02-01T07:56:02;13.05;;;3.92;;
5696;SDS011;2873;50.966;7.210;2023-02-01T07:58:28;19.73;;;3.93;;
5696;SDS011;2873;50.966;7.210;2023-02-01T08:00:54;15.03;;;3.60;;
5696;SDS011;2873;50.966;7.210;2023-02-01T08:03:38;16.35;;;3.50;;
5696;SDS011;2873;50.966;7.210;2023-02-01T08:06:04;17.00;;;3.40;;
5696;SDS011;2873;50.966;7.210;2023-02-01T08:08:30;15.65;;;4.65;;
5696;SDS011;2873;50.966;7.210;2023-02-01T08:10:59;21.85;;;3.63;;
5696;SDS011;2873;50.966;7.210;2023-02-01T08:13:25;19.42;;;4.10;;
5696;SDS011;2873;50.966;7.210;2023-02-01T08:15:51;19.43;;;4.00;;
5696;SDS011;2873;50.966;7.210;2023-02-01T08:18:16;15.93;;;4.05;;
5696;SDS011;2873;50.966;7.210;2023-02-01T08:20:43;16.42;;;3.65;;
5696;SDS011;2873;50.966;7.210;2023-02-01T08:23:10;16.65;;;3.50;;
5696;SDS011;2873;50.966;7.210;2023-02-01T08:25:36;19.27;;;3.60;;
5696;SDS011;2873;50.966;7.210;2023-02-01T08:28:03;15.30;;;4.10;;
5696;SDS011;2873;50.966;7.210;2023-02-01T08:30:28;15.38;;;3.60;;
5696;SDS011;2873;50.966;7.210;2023-02-01T08:32:54;9.73;;;3.57;;
5696;SDS011;2873;50.966;7.210;2023-02-01T08:35:19;16.77;;;3.50;;
5696;SDS011;2873;50.966;7.210;2023-02-01T08:37:45;17.23;;;3.70;;
5696;SDS011;2873;50.966;7.210;2023-02-01T08:40:11;16.00;;;3.70;;
5696;SDS011;2873;50.966;7.210;2023-02-01T08:42:38;15.02;;;4.00;;
5696;SDS011;2873;50.966;7.210;2023-02-01T08:45:16;15.30;;;4.40;;
5696;SDS011;2873;50.966;7.210;2023-02-01T08:47:54;13.30;;;3.70;;
5696;SDS011;2873;50.966;7.210;2023-02-01T08:50:21;18.23;;;3.65;;
5696;SDS011;2873;50.966;7.210;2023-02-01T08:52:47;15.23;;;3.50;;
5696;SDS011;2873;50.966;7.210;2023-02-01T08:55:13;13.65;;;3.45;;
5696;SDS011;2873;50.966;7.210;2023-02-01T08:57:40;15.27;;;4.82;;
5696;SDS011;2873;50.966;7.210;2023-02-01T09:00:06;18.10;;;3.60;;
5696;SDS011;2873;50.966;7.210;2023-02-01T09:02:34;14.30;;;4.55;;
5696;SDS011;2873;50.966;7.210;2023-02-01T09:05:00;24.02;;;3.83;;
5696;SDS011;2873;50.966;7.210;2023-02-01T09:07:26;22.00;;;3.33;;
5696;SDS011;2873;50.966;7.210;2023-02-01T09:09:51;17.05;;;3.78;;
5696;SDS011;2873;50.966;7.210;2023-02-01T09:12:19;11.38;;;3.40;;
5696;SDS011;2873;50.966;7.210;2023-02-01T09:14:45;18.52;;;4.22;;
5696;SDS011;2873;50.966;7.210;2023-02-01T09:17:10;15.87;;;3.53;;
5696;SDS011;2873;50.966;7.210;2023-02-01T09:19:38;15.32;;;3.28;;
5696;SDS011;2873;50.966;7.210;2023-02-01T09:22:04;18.90;;;4.10;;
5696;SDS011;2873;50.966;7.210;2023-02-01T09:24:29;16.20;;;3.53;;
5696;SDS011;2873;50.966;7.210;2023-02-01T09:26:55;24.88;;;4.13;;
5696;SDS011;2873;50.966;7.210;2023-02-01T09:29:20;15.30;;;3.80;;
5696;SDS011;2873;50.966;7.210;2023-02-01T09:31:46;21.48;;;4.20;;
5696;SDS011;2873;50.966;7.210;2023-02-01T09:34:12;18.43;;;3.90;;
5696;SDS011;2873;50.966;7.210;2023-02-01T09:36:37;14.60;;;3.75;;
5696;SDS011;2873;50.966;7.210;2023-02-01T09:39:03;18.83;;;4.30;;
5696;SDS011;2873;50.966;7.210;2023-02-01T09:44:32;19.40;;;4.40;;
5696;SDS011;2873;50.966;7.210;2023-02-01T09:47:10;18.50;;;3.70;;
5696;SDS011;2873;50.966;7.210;2023-02-01T09:49:39;17.88;;;3.92;;
5696;SDS011;2873;50.966;7.210;2023-02-01T09:52:12;13.07;;;3.40;;
5696;SDS011;2873;50.966;7.210;2023-02-01T09:54:59;14.38;;;3.88;;
5696;SDS011;2873;50.966;7.210;2023-02-01T09:57:40;16.80;;;4.57;;
5696;SDS011;2873;50.966;7.210;2023-02-01T10:00:34;19.90;;;3.97;;
5696;SDS011;2873;50.966;7.210;2023-02-01T10:03:02;19.88;;;3.85;;
5696;SDS011;2873;50.966;7.210;2023-02-01T10:06:06;15.50;;;4.10;;
5696;SDS011;2873;50.966;7.210;2023-02-01T10:08:47;20.00;;;3.85;;
5696;SDS011;2873;50.966;7.210;2023-02-01T10:22:19;18.10;;;3.57;;
5696;SDS011;2873;50.966;7.210;2023-02-01T10:25:00;19.30;;;4.25;;
5696;SDS011;2873;50.966;7.210;2023-02-01T10:27:38;18.33;;;4.35;;
5696;SDS011;2873;50.966;7.210;2023-02-01T10:30:24;21.90;;;4.25;;
5696;SDS011;2873;50.966;7.210;2023-02-01T10:32:56;14.18;;;3.60;;
5696;SDS011;2873;50.966;7.210;2023-02-01T10:35:43;10.93;;;3.67;;
5696;SDS011;2873;50.966;7.210;2023-02-01T10:38:44;21.02;;;3.83;;
5696;SDS011;2873;50.966;7.210;2023-02-01T10:41:03;12.45;;;3.90;;
5696;SDS011;2873;50.966;7.210;2023-02-01T10:43:40;18.80;;;3.97;;
5696;SDS011;2873;50.966;7.210;2023-02-01T10:46:06;14.25;;;4.07;;
5696;SDS011;2873;50.966;7.210;2023-02-01T10:48:32;12.02;;;3.42;;
5696;SDS011;2873;50.966;7.210;2023-02-01T10:51:06;18.60;;;4.32;;
5696;SDS011;2873;50.966;7.210;2023-02-01T10:53:56;14.38;;;3.80;;
5696;SDS011;2873;50.966;7.210;2023-02-01T10:56:26;19.20;;;4.45;;
5696;SDS011;2873;50.966;7.210;2023-02-01T10:59:03;16.40;;;3.75;;
5696;SDS011;2873;50.966;7.210;2023-02-01T11:01:34;18.85;;;3.90;;
5696;SDS011;2873;50.966;7.210;2023-02-01T11:04:05;18.15;;;3.40;;
5696;SDS011;2873;50.966;7.210;2023-02-01T11:06:39;15.68;;;3.55;;
5696;SDS011;2873;50.966;7.210;2023-02-01T11:16:59;18.75;;;3.78;;
5696;SDS011;2873;50.966;7.210;2023-02-01T11:19:26;12.45;;;3.80;;
5696;SDS011;2873;50.966;7.210;2023-02-01T11:21:54;19.23;;;3.77;;
5696;SDS011;2873;50.966;7.210;2023-02-01T11:24:29;15.43;;;3.90;;
5696;SDS011;2873;50.966;7.210;2023-02-01T11:26:58;13.85;;;3.55;;
5696;SDS011;2873;50.966;7.210;2023-02-01T11:29:27;16.83;;;4.30;;
5696;SDS011;2873;50.966;7.210;2023-02-01T11:31:58;11.53;;;4.13;;
5696;SDS011;2873;50.966;7.210;2023-02-01T11:34:26;18.98;;;4.35;;
5696;SDS011;2873;50.966;7.210;2023-02-01T11:36:59;13.32;;;4.20;;
5696;SDS011;2873;50.966;7.210;2023-02-01T11:39:33;14.73;;;3.88;;
5696;SDS011;2873;50.966;7.210;2023-02-01T11:42:12;17.23;;;3.75;;
5696;SDS011;2873;50.966;7.210;2023-02-01T11:44:39;18.33;;;3.67;;
5696;SDS011;2873;50.966;7.210;2023-02-01T11:47:28;14.23;;;4.43;;
5696;SDS011;2873;50.966;7.210;2023-02-01T11:50:05;15.07;;;3.78;;
5696;SDS011;2873;50.966;7.210;2023-02-01T12:01:26;18.77;;;4.05;;
5696;SDS011;2873;50.966;7.210;2023-02-01T12:37:05;14.47;;;3.27;;
5696;SDS011;2873;50.966;7.210;2023-02-01T12:42:22;11.48;;;3.38;;
5696;SDS011;2873;50.966;7.210;2023-02-01T12:44:55;11.10;;;3.10;;
5696;SDS011;2873;50.966;7.210;2023-02-01T12:47:32;14.38;;;4.20;;
5696;SDS011;2873;50.966;7.210;2023-02-01T12:53:09;15.65;;;3.80;;
5696;SDS011;2873;50.966;7.210;2023-02-01T12:55:58;10.18;;;3.25;;
5696;SDS011;2873;50.966;7.210;2023-02-01T13:01:09;20.23;;;4.00;;
5696;SDS011;2873;50.966;7.210;2023-02-01T13:06:10;16.98;;;3.20;;
5696;SDS011;2873;50.966;7.210;2023-02-01T13:09:23;17.75;;;3.70;;
5696;SDS011;2873;50.966;7.210;2023-02-01T13:11:36;15.20;;;2.88;;
5696;SDS011;2873;50.966;7.210;2023-02-01T13:17:04;12.77;;;3.10;;
5696;SDS011;2873;50.966;7.210;2023-02-01T13:19:42;8.73;;;3.03;;
5696;SDS011;2873;50.966;7.210;2023-02-01T13:22:17;13.90;;;3.28;;
5696;SDS011;2873;50.966;7.210;2023-02-01T13:24:54;8.90;;;2.80;;
5696;SDS011;2873;50.966;7.210;2023-02-01T13:27:26;11.27;;;3.35;;
5696;SDS011;2873;50.966;7.210;2023-02-01T13:29:56;18.60;;;3.33;;
5696;SDS011;2873;50.966;7.210;2023-02-01T13:32:33;13.77;;;3.60;;
5696;SDS011;2873;50.966;7.210;2023-02-01T13:37:56;16.92;;;3.65;;
5696;SDS011;2873;50.966;7.210;2023-02-01T13:43:36;17.65;;;3.22;;
5696;SDS011;2873;50.966;7.210;2023-02-01T13:46:07;9.65;;;2.95;;
5696;SDS011;2873;50.966;7.210;2023-02-01T13:48:47;14.10;;;3.45;;
5696;SDS011;2873;50.966;7.210;2023-02-01T13:51:28;15.30;;;3.80;;
5696;SDS011;2873;50.966;7.210;2023-02-01T13:54:23;12.43;;;3.25;;
5696;SDS011;2873;50.966;7.210;2023-02-01T13:56:49;8.38;;;3.00;;
5696;SDS011;2873;50.966;7.210;2023-02-01T14:05:11;9.68;;;3.13;;
5696;SDS011;2873;50.966;7.210;2023-02-01T14:10:47;15.40;;;3.38;;
5696;SDS011;2873;50.966;7.210;2023-02-01T14:26:19;15.93;;;3.10;;
5696;SDS011;2873;50.966;7.210;2023-02-01T14:28:46;11.07;;;2.33;;
5696;SDS011;2873;50.966;7.210;2023-02-01T14:31:37;13.27;;;2.90;;
5696;SDS011;2873;50.966;7.210;2023-02-01T14:34:18;9.55;;;2.75;;
5696;SDS011;2873;50.966;7.210;2023-02-01T14:36:57;11.80;;;2.90;;
5696;SDS011;2873;50.966;7.210;2023-02-01T14:39:27;15.02;;;2.90;;
5696;SDS011;2873;50.966;7.210;2023-02-01T14:41:57;10.48;;;2.67;;
5696;SDS011;2873;50.966;7.210;2023-02-01T14:44:27;8.38;;;2.50;;
5696;SDS011;2873;50.966;7.210;2023-02-01T14:47:05;16.65;;;3.20;;
5696;SDS011;2873;50.966;7.210;2023-02-01T14:52:29;10.23;;;2.60;;
5696;SDS011;2873;50.966;7.210;2023-02-01T14:55:02;11.40;;;3.15;;
5696;SDS011;2873;50.966;7.210;2023-02-01T14:57:36;13.00;;;2.80;;
5696;SDS011;2873;50.966;7.210;2023-02-01T15:00:06;11.43;;;2.60;;
5696;SDS011;2873;50.966;7.210;2023-02-01T15:02:44;14.63;;;2.58;;
5696;SDS011;2873;50.966;7.210;2023-02-01T15:05:35;11.15;;;2.58;;
5696;SDS011;2873;50.966;7.210;2023-02-01T15:08:04;5.43;;;2.30;;
5696;SDS011;2873;50.966;7.210;2023-02-01T15:10:39;18.05;;;2.95;;
5696;SDS011;2873;50.966;7.210;2023-02-01T15:13:20;8.65;;;2.42;;
5696;SDS011;2873;50.966;7.210;2023-02-01T15:16:01;11.82;;;2.50;;
5696;SDS011;2873;50.966;7.210;2023-02-01T15:18:34;6.05;;;2.50;;
5696;SDS011;2873;50.966;7.210;2023-02-01T15:21:00;13.87;;;2.90;;
5696;SDS011;2873;50.966;7.210;2023-02-01T15:23:27;11.75;;;2.30;;
5696;SDS011;2873;50.966;7.210;2023-02-01T15:25:53;14.73;;;3.20;;
5696;SDS011;2873;50.966;7.210;2023-02-01T15:28:20;8.57;;;2.40;;
5696;SDS011;2873;50.966;7.210;2023-02-01T15:30:57;14.70;;;3.20;;
5696;SDS011;2873;50.966;7.210;2023-02-01T15:33:27;7.53;;;2.50;;
5696;SDS011;2873;50.966;7.210;2023-02-01T15:35:55;11.90;;;3.17;;
5696;SDS011;2873;50.966;7.210;2023-02-01T15:38:38;11.10;;;3.00;;
5696;SDS011;2873;50.966;7.210;2023-02-01T15:46:07;11.80;;;3.47;;
5696;SDS011;2873;50.966;7.210;2023-02-01T15:48:43;10.82;;;2.80;;
5696;SDS011;2873;50.966;7.210;2023-02-01T15:51:23;16.35;;;3.33;;
5696;SDS011;2873;50.966;7.210;2023-02-01T15:53:55;14.98;;;3.38;;
5696;SDS011;2873;50.966;7.210;2023-02-01T15:56:24;13.20;;;3.57;;
5696;SDS011;2873;50.966;7.210;2023-02-01T15:58:53;13.68;;;3.20;;
5696;SDS011;2873;50.966;7.210;2023-02-01T16:01:22;11.82;;;2.95;;
5696;SDS011;2873;50.966;7.210;2023-02-01T16:03:47;7.00;;;2.90;;
5696;SDS011;2873;50.966;7.210;2023-02-01T16:08:53;14.37;;;5.27;;
5696;SDS011;2873;50.966;7.210;2023-02-01T16:11:28;18.98;;;6.30;;
5696;SDS011;2873;50.966;7.210;2023-02-01T16:13:58;19.33;;;5.10;;
5696;SDS011;2873;50.966;7.210;2023-02-01T16:16:25;16.17;;;5.60;;
5696;SDS011;2873;50.966;7.210;2023-02-01T16:18:52;15.93;;;4.38;;
5696;SDS011;2873;50.966;7.210;2023-02-01T16:21:18;19.88;;;6.97;;
5696;SDS011;2873;50.966;7.210;2023-02-01T16:23:47;16.30;;;5.38;;
5696;SDS011;2873;50.966;7.210;2023-02-01T16:26:15;16.40;;;4.80;;
5696;SDS011;2873;50.966;7.210;2023-02-01T16:28:41;15.45;;;3.90;;
5696;SDS011;2873;50.966;7.210;2023-02-01T16:31:09;14.27;;;3.60;;
5696;SDS011;2873;50.966;7.210;2023-02-01T16:33:45;13.23;;;4.00;;
5696;SDS011;2873;50.966;7.210;2023-02-01T16:36:15;13.97;;;3.27;;
5696;SDS011;2873;50.966;7.210;2023-02-01T16:38:41;11.35;;;3.33;;
5696;SDS011;2873;50.966;7.210;2023-02-01T16:41:09;13.02;;;3.60;;
5696;SDS011;2873;50.966;7.210;2023-02-01T16:43:40;14.40;;;3.58;;
5696;SDS011;2873;50.966;7.210;2023-02-01T16:46:05;8.88;;;3.50;;
5696;SDS011;2873;50.966;7.210;2023-02-01T16:48:40;11.90;;;3.20;;
5696;SDS011;2873;50.966;7.210;2023-02-01T16:51:08;12.82;;;2.95;;
5696;SDS011;2873;50.966;7.210;2023-02-01T16:53:36;15.27;;;3.00;;
5696;SDS011;2873;50.966;7.210;2023-02-01T16:56:04;11.48;;;3.60;;
5696;SDS011;2873;50.966;7.210;2023-02-01T16:58:37;16.58;;;4.80;;
5696;SDS011;2873;50.966;7.210;2023-02-01T17:01:06;16.20;;;4.90;;
5696;SDS011;2873;50.966;7.210;2023-02-01T17:03:31;17.30;;;3.40;;
5696;SDS011;2873;50.966;7.210;2023-02-01T17:05:57;13.20;;;3.92;;
5696;SDS011;2873;50.966;7.210;2023-02-01T17:08:36;13.50;;;3.50;;
5696;SDS011;2873;50.966;7.210;2023-02-01T17:11:04;9.57;;;2.92;;
5696;SDS011;2873;50.966;7.210;2023-02-01T17:13:31;14.05;;;4.25;;
5696;SDS011;2873;50.966;7.210;2023-02-01T17:18:51;17.13;;;4.85;;
5696;SDS011;2873;50.966;7.210;2023-02-01T17:21:19;16.10;;;6.07;;
5696;SDS011;2873;50.966;7.210;2023-02-01T17:23:45;19.38;;;6.45;;
5696;SDS011;2873;50.966;7.210;2023-02-01T17:26:11;19.73;;;7.03;;
5696;SDS011;2873;50.966;7.210;2023-02-01T17:28:36;18.30;;;5.53;;
5696;SDS011;2873;50.966;7.210;2023-02-01T17:31:02;17.70;;;3.65;;
5696;SDS011;2873;50.966;7.210;2023-02-01T17:33:33;16.83;;;3.50;;
5696;SDS011;2873;50.966;7.210;2023-02-01T17:36:00;11.82;;;3.17;;
5696;SDS011;2873;50.966;7.210;2023-02-01T17:38:26;16.60;;;3.95;;
5696;SDS011;2873;50.966;7.210;2023-02-01T17:40:52;11.00;;;3.30;;
5696;SDS011;2873;50.966;7.210;2023-02-01T17:43:20;15.53;;;3.73;;
5696;SDS011;2873;50.966;7.210;2023-02-01T17:45:48;13.10;;;3.30;;
5696;SDS011;2873;50.966;7.210;2023-02-01T17:48:23;17.23;;;3.50;;
5696;SDS011;2873;50.966;7.210;2023-02-01T17:50:49;13.00;;;3.28;;
5696;SDS011;2873;50.966;7.210;2023-02-01T17:53:19;16.35;;;3.60;;
5696;SDS011;2873;50.966;7.210;2023-02-01T17:55:48;14.45;;;3.45;;